Time;durP1;ratioP1;P1;durP2;ratioP2;P2;SDS_P1;SDS_P2;PMS_P1;PMS_P2;Temp;Humidity;BMP_temperature;BMP_pressure;BME280_temperature;BME280_humidity;BME280_pressure;Samples;Min_cycle;Max_cycle;Signal;HPM_P1;HPM_P2
2022/09/08 00:02:18;;;;;;;5.32;1.83;;;21.20;99.90;;;;;;4874692;29;20649;-86
2022/09/08 00:04:44;;;;;;;5.57;2.33;;;21.20;99.90;;;;;;4877353;29;20037;-86
2022/09/08 00:07:09;;;;;;;5.80;2.55;;;21.20;99.90;;;;;;4878126;29;20063;-86
2022/09/08 00:09:35;;;;;;;2.85;1.88;;;21.20;99.90;;;;;;4877818;29;20542;-86
2022/09/08 00:12:03;;;;;;;2.95;1.20;;;21.10;99.90;;;;;;4894912;29;20029;-86
2022/09/08 00:14:33;;;;;;;3.17;2.20;;;21.10;99.90;;;;;;4877868;29;20064;-86
2022/09/08 00:16:59;;;;;;;2.90;1.73;;;21.20;99.90;;;;;;4894519;29;20444;-86
2022/09/08 00:19:28;;;;;;;5.65;1.90;;;21.10;99.90;;;;;;4894825;29;20029;-86
2022/09/08 00:21:54;;;;;;;3.28;0.93;;;21.10;99.90;;;;;;4878005;29;20491;-86
2022/09/08 00:24:20;;;;;;;2.78;1.65;;;21.10;99.90;;;;;;4894353;29;20107;-86
2022/09/08 00:26:46;;;;;;;6.43;1.90;;;21.10;99.90;;;;;;4877796;29;20542;-86
2022/09/08 00:29:12;;;;;;;3.38;0.98;;;21.10;99.90;;;;;;4862369;29;20059;-86
2022/09/08 00:31:39;;;;;;;4.70;1.90;;;21.00;99.90;;;;;;4877877;29;20033;-86
2022/09/08 00:34:07;;;;;;;3.45;1.58;;;21.10;99.90;;;;;;4877422;29;20101;-86
2022/09/08 00:36:33;;;;;;;5.72;1.77;;;21.00;99.90;;;;;;4894472;29;20081;-86
2022/09/08 00:39:00;;;;;;;2.75;1.27;;;21.00;99.90;;;;;;4877233;29;20048;-86
2022/09/08 00:41:28;;;;;;;3.55;1.67;;;21.00;99.90;;;;;;4877232;29;20045;-85
2022/09/08 00:44:00;;;;;;;4.05;1.63;;;21.00;99.90;;;;;;4894281;29;20033;-86
2022/09/08 00:46:35;;;;;;;3.65;2.00;;;21.00;99.90;;;;;;4881567;29;20451;-86
2022/09/08 00:49:16;;;;;;;3.47;1.33;;;20.90;99.90;;;;;;4880391;29;20040;-86
2022/09/08 00:51:46;;;;;;;4.88;2.10;;;20.90;99.90;;;;;;4896064;29;20033;-86
2022/09/08 00:54:13;;;;;;;9.10;3.20;;;20.90;99.90;;;;;;4912791;29;20096;-86
2022/09/08 00:56:41;;;;;;;2.17;1.30;;;20.90;99.90;;;;;;4861369;29;20025;-86
2022/09/08 00:59:08;;;;;;;4.72;1.95;;;20.90;99.90;;;;;;4893841;29;20040;-85
2022/09/08 01:01:35;;;;;;;1.55;1.30;;;20.90;99.90;;;;;;4877415;29;20438;-86
2022/09/08 01:04:03;;;;;;;3.63;1.65;;;20.90;99.90;;;;;;4894002;29;20029;-85
2022/09/08 01:12:55;;;;;;;1.83;1.15;;;20.90;99.90;;;;;;4836451;29;20076;-86
2022/09/08 01:15:26;;;;;;;4.30;1.27;;;20.90;99.90;;;;;;4876412;29;20085;-86
2022/09/08 01:17:56;;;;;;;3.40;1.30;;;20.90;99.90;;;;;;4893870;29;20029;-86
2022/09/08 01:21:15;;;;;;;3.88;1.83;;;20.80;99.90;;;;;;4876814;29;20029;-85
2022/09/08 01:23:44;;;;;;;2.22;1.70;;;20.80;99.90;;;;;;4861403;29;20052;-85
2022/09/08 01:26:34;;;;;;;5.13;2.38;;;20.80;99.90;;;;;;4876732;29;20033;-86
2022/09/08 01:29:02;;;;;;;6.60;1.85;;;20.90;99.90;;;;;;4876809;29;20070;-86
2022/09/08 01:31:31;;;;;;;5.50;1.67;;;20.80;99.90;;;;;;4876496;29;20120;-86
2022/09/08 01:34:00;;;;;;;1.60;1.35;;;20.80;99.90;;;;;;4893380;29;20065;-86
2022/09/08 01:36:26;;;;;;;11.35;2.45;;;20.80;99.90;;;;;;4876492;29;20029;-86
2022/09/08 01:38:52;;;;;;;1.60;1.38;;;20.70;99.90;;;;;;4879733;29;20096;-85
2022/09/08 01:41:17;;;;;;;3.97;1.65;;;20.80;99.90;;;;;;4861261;29;20055;-86
2022/09/08 01:43:43;;;;;;;3.70;1.75;;;20.70;99.90;;;;;;4876595;29;20040;-86
2022/09/08 01:46:10;;;;;;;2.08;1.52;;;20.70;99.90;;;;;;4876451;29;20036;-86
2022/09/08 01:48:36;;;;;;;5.35;2.30;;;20.70;99.90;;;;;;4894166;29;20064;-86
2022/09/08 01:51:06;;;;;;;2.88;1.85;;;20.70;99.90;;;;;;4879652;29;20040;-86
2022/09/08 01:53:33;;;;;;;2.63;2.03;;;20.70;99.90;;;;;;4911676;29;20040;-86
2022/09/08 01:55:58;;;;;;;5.45;1.60;;;20.70;99.90;;;;;;4879339;29;20017;-86
2022/09/08 01:58:25;;;;;;;1.60;1.17;;;20.70;99.90;;;;;;4860757;29;20043;-86
2022/09/08 02:00:51;;;;;;;2.38;1.15;;;20.70;99.90;;;;;;4876216;29;20029;-85
2022/09/08 02:03:17;;;;;;;1.60;1.42;;;20.70;99.90;;;;;;4892394;29;20028;-86
2022/09/08 02:05:43;;;;;;;6.05;1.80;;;20.60;99.90;;;;;;4875974;29;20033;-86
2022/09/08 02:08:10;;;;;;;1.95;1.30;;;20.60;99.90;;;;;;4876049;29;20037;-86
2022/09/08 02:10:37;;;;;;;4.53;1.27;;;20.60;99.90;;;;;;4892555;29;20108;-86
2022/09/08 02:13:04;;;;;;;8.65;3.03;;;20.60;99.90;;;;;;4876049;29;20044;-86
2022/09/08 02:15:31;;;;;;;8.93;2.55;;;20.70;99.90;;;;;;4875904;29;20071;-86
2022/09/08 02:17:57;;;;;;;6.65;2.28;;;20.60;99.90;;;;;;4875611;29;20097;-86
2022/09/08 02:20:23;;;;;;;2.92;2.67;;;20.60;99.90;;;;;;4892621;29;20049;-86
2022/09/08 02:22:51;;;;;;;2.15;1.40;;;20.60;99.90;;;;;;4875625;29;20041;-86
2022/09/08 02:25:17;;;;;;;7.53;2.35;;;20.60;99.90;;;;;;4875790;29;20025;-86
2022/09/08 02:27:43;;;;;;;5.68;1.63;;;20.60;99.90;;;;;;4891907;29;20033;-86
2022/09/08 02:30:11;;;;;;;8.77;2.13;;;20.60;99.90;;;;;;4875690;29;20041;-86
2022/09/08 02:32:37;;;;;;;5.78;2.05;;;20.50;99.90;;;;;;4891949;29;20176;-85
2022/09/08 02:35:04;;;;;;;4.72;2.97;;;20.50;99.90;;;;;;4892308;29;20082;-86
2022/09/08 02:37:30;;;;;;;4.00;2.25;;;20.50;99.90;;;;;;4875448;29;20043;-86
2022/09/08 02:39:56;;;;;;;1.85;1.75;;;20.50;99.90;;;;;;4875531;29;20092;-85
2022/09/08 02:42:23;;;;;;;5.50;2.88;;;20.50;99.90;;;;;;4892225;29;20053;-85
2022/09/08 02:44:49;;;;;;;7.63;1.83;;;20.50;99.90;;;;;;4891999;29;20040;-85
2022/09/08 02:47:14;;;;;;;8.77;4.22;;;20.50;99.90;;;;;;4896922;29;20033;-85
2022/09/08 02:49:40;;;;;;;3.03;2.38;;;20.50;99.90;;;;;;4865863;29;20029;-85
2022/09/08 02:52:06;;;;;;;3.92;2.40;;;20.50;99.90;;;;;;4891944;29;20036;-86
2022/09/08 02:54:32;;;;;;;6.20;2.35;;;20.50;99.90;;;;;;4875336;29;20035;-86
2022/09/08 02:56:58;;;;;;;7.85;2.38;;;20.50;99.90;;;;;;4875326;29;20021;-86
2022/09/08 02:59:24;;;;;;;8.45;2.90;;;20.50;99.90;;;;;;4875014;29;20025;-86
2022/09/08 03:01:50;;;;;;;9.57;2.97;;;20.40;99.90;;;;;;4874864;29;20114;-85
2022/09/08 03:04:15;;;;;;;11.93;3.03;;;20.40;99.90;;;;;;4875408;29;20033;-86
2022/09/08 03:06:43;;;;;;;9.35;3.45;;;20.40;99.90;;;;;;4875154;29;20041;-86
2022/09/08 03:09:09;;;;;;;7.10;3.38;;;20.40;99.90;;;;;;4891801;29;20055;-86
2022/09/08 03:11:35;;;;;;;8.63;3.25;;;20.40;99.90;;;;;;4891918;29;20491;-86
2022/09/08 03:14:02;;;;;;;5.45;3.38;;;20.40;99.90;;;;;;4874954;29;20039;-85
2022/09/08 03:16:28;;;;;;;9.77;2.58;;;20.40;99.90;;;;;;4874858;29;20033;-85
2022/09/08 03:18:54;;;;;;;10.00;3.08;;;20.40;99.90;;;;;;4891726;29;20025;-85
2022/09/08 03:21:20;;;;;;;8.07;3.65;;;20.40;99.90;;;;;;4875026;29;20444;-86
2022/09/08 03:23:46;;;;;;;6.57;2.90;;;20.40;99.90;;;;;;4875069;29;20037;-85
2022/09/08 03:26:18;;;;;;;5.90;2.55;;;20.40;99.90;;;;;;4859513;29;20032;-85
2022/09/08 03:28:45;;;;;;;6.50;3.00;;;20.30;99.90;;;;;;4875029;29;20044;-86
2022/09/08 03:31:14;;;;;;;3.67;2.38;;;20.30;99.90;;;;;;4891608;29;20059;-86
2022/09/08 03:33:41;;;;;;;5.43;2.85;;;20.30;99.90;;;;;;4891398;29;20056;-85
2022/09/08 03:36:09;;;;;;;7.60;2.40;;;20.30;99.90;;;;;;4891344;29;20127;-86
2022/09/08 03:38:36;;;;;;;4.22;2.00;;;20.30;99.90;;;;;;4894065;29;20048;-86
2022/09/08 03:41:10;;;;;;;5.22;2.08;;;20.30;99.90;;;;;;4895403;29;20053;-85
2022/09/08 03:43:36;;;;;;;6.10;2.70;;;20.30;99.90;;;;;;4878770;29;20062;-86
2022/09/08 03:46:07;;;;;;;4.65;1.98;;;20.30;99.90;;;;;;4878698;29;20040;-86
2022/09/08 03:48:34;;;;;;;6.43;2.60;;;20.30;99.90;;;;;;4892347;29;20475;-85
2022/09/08 03:51:10;;;;;;;3.72;1.55;;;20.20;99.90;;;;;;4897350;29;20029;-86
2022/09/08 03:53:37;;;;;;;6.07;2.08;;;20.20;99.90;;;;;;4897120;29;20028;-86
2022/09/08 03:56:13;;;;;;;4.78;1.88;;;20.20;99.90;;;;;;4897124;29;20109;-86
2022/09/08 03:58:39;;;;;;;3.03;1.75;;;20.20;99.90;;;;;;4896897;29;20037;-85
2022/09/08 04:01:14;;;;;;;3.25;1.63;;;20.20;99.90;;;;;;4911805;29;20036;-85
2022/09/08 04:03:39;;;;;;;3.28;1.83;;;20.20;99.90;;;;;;4896230;29;20033;-85
2022/09/08 04:06:05;;;;;;;9.77;1.35;;;20.20;99.90;;;;;;4879669;29;20065;-85
2022/09/08 04:08:31;;;;;;;1.42;1.20;;;20.20;99.90;;;;;;4878496;29;20053;-85
2022/09/08 04:10:57;;;;;;;5.82;2.17;;;20.20;99.90;;;;;;4878064;29;20032;-85
2022/09/08 04:13:24;;;;;;;3.83;2.63;;;20.20;99.90;;;;;;4878091;29;20045;-85
2022/09/08 04:15:50;;;;;;;4.88;1.27;;;20.10;99.90;;;;;;4862364;29;20124;-86
2022/09/08 04:18:16;;;;;;;4.35;1.45;;;20.10;99.90;;;;;;4894562;29;20064;-86
2022/09/08 04:20:42;;;;;;;1.00;1.00;;;20.10;99.90;;;;;;4877888;29;20479;-85
2022/09/08 04:23:08;;;;;;;5.00;1.85;;;20.10;99.90;;;;;;4878080;29;20049;-85
2022/09/08 04:25:34;;;;;;;2.80;1.77;;;20.10;99.90;;;;;;4894515;29;20057;-85
2022/09/08 04:28:01;;;;;;;1.92;1.73;;;20.10;99.90;;;;;;4877656;29;20064;-85
2022/09/08 04:30:26;;;;;;;2.20;1.95;;;20.10;99.90;;;;;;4894626;29;20029;-85
2022/09/08 04:32:53;;;;;;;2.58;2.10;;;20.10;99.90;;;;;;4894127;29;20057;-86
2022/09/08 04:35:20;;;;;;;5.28;2.58;;;20.10;99.90;;;;;;4877467;29;20475;-85
2022/09/08 04:37:46;;;;;;;2.13;1.83;;;20.10;99.90;;;;;;4894318;29;20471;-85
2022/09/08 04:40:13;;;;;;;2.05;1.38;;;20.00;99.90;;;;;;4877535;29;20033;-85
2022/09/08 04:42:38;;;;;;;3.80;2.55;;;20.00;99.90;;;;;;4877349;29;20056;-85
2022/09/08 04:45:05;;;;;;;4.78;1.83;;;20.00;99.90;;;;;;4877830;29;20123;-86
2022/09/08 04:47:31;;;;;;;2.67;2.10;;;20.00;99.90;;;;;;4899983;29;20040;-85
2022/09/08 04:49:57;;;;;;;2.83;2.13;;;20.00;99.90;;;;;;4895576;29;20060;-85
2022/09/08 04:52:25;;;;;;;5.45;1.75;;;20.00;99.90;;;;;;4880731;29;20059;-85
2022/09/08 04:54:52;;;;;;;3.95;2.67;;;20.00;99.90;;;;;;4895973;29;20039;-86
2022/09/08 04:57:18;;;;;;;2.25;1.80;;;20.00;99.90;;;;;;4912663;29;20048;-86
2022/09/08 04:59:44;;;;;;;3.78;2.53;;;20.00;99.90;;;;;;4896123;29;20036;-85
2022/09/08 05:02:10;;;;;;;2.88;2.05;;;19.90;99.90;;;;;;4879829;29;20029;-85
2022/09/08 05:04:37;;;;;;;5.78;2.80;;;20.00;99.90;;;;;;4892059;29;20033;-85
2022/09/08 05:07:03;;;;;;;1.65;1.50;;;19.90;99.90;;;;;;4877070;29;20075;-85
2022/09/08 05:09:29;;;;;;;6.68;2.40;;;19.90;99.90;;;;;;4876871;29;20487;-86
2022/09/08 05:11:55;;;;;;;3.05;1.63;;;19.90;99.90;;;;;;4901021;29;20061;-86
2022/09/08 05:14:22;;;;;;;3.00;2.00;;;19.90;99.90;;;;;;4879473;29;20036;-85
2022/09/08 05:16:48;;;;;;;2.78;1.33;;;19.90;99.90;;;;;;4876647;29;20498;-85
2022/09/08 05:19:14;;;;;;;4.55;2.10;;;19.90;99.90;;;;;;4893095;29;20033;-86
2022/09/08 05:21:39;;;;;;;3.50;1.73;;;19.90;99.90;;;;;;4893475;29;20053;-86
2022/09/08 05:24:05;;;;;;;4.47;1.63;;;19.90;99.90;;;;;;4876375;29;20051;-86
2022/09/08 05:26:32;;;;;;;2.58;2.38;;;19.90;99.90;;;;;;4874924;29;20047;-86
2022/09/08 05:28:58;;;;;;;4.43;2.42;;;19.80;99.90;;;;;;4876153;29;20105;-86
2022/09/08 05:31:27;;;;;;;2.35;1.85;;;19.90;99.90;;;;;;4876078;29;20033;-86
2022/09/08 05:33:54;;;;;;;5.22;2.85;;;19.90;99.90;;;;;;4871135;29;20029;-86
2022/09/08 05:36:29;;;;;;;5.63;2.42;;;19.90;99.90;;;;;;4876174;29;20028;-86
2022/09/08 05:38:55;;;;;;;6.63;2.65;;;19.90;99.90;;;;;;4898249;29;20039;-85
2022/09/08 05:41:22;;;;;;;6.28;2.70;;;19.90;99.90;;;;;;4898158;29;20049;-86
2022/09/08 05:43:52;;;;;;;2.45;2.15;;;19.80;99.90;;;;;;4889789;29;20609;-86
2022/09/08 05:46:18;;;;;;;3.13;1.65;;;19.90;99.90;;;;;;4873965;29;20025;-86
2022/09/08 05:48:45;;;;;;;4.45;1.75;;;19.80;99.90;;;;;;4879119;29;20032;-86
2022/09/08 05:51:11;;;;;;;5.25;1.90;;;19.80;99.90;;;;;;4860865;29;20840;-86
2022/09/08 05:53:39;;;;;;;8.68;2.35;;;19.80;99.90;;;;;;4856655;29;20032;-86
2022/09/08 05:56:07;;;;;;;2.38;2.17;;;19.80;99.90;;;;;;4860683;29;20033;-86
2022/09/08 05:58:33;;;;;;;4.72;2.30;;;19.80;99.90;;;;;;4876102;29;20048;-86
2022/09/08 06:01:06;;;;;;;3.88;2.55;;;19.80;99.90;;;;;;4854277;29;20041;-85
2022/09/08 06:03:32;;;;;;;4.53;2.33;;;19.80;99.90;;;;;;4872418;29;20040;-86
2022/09/08 06:06:07;;;;;;;4.35;2.45;;;19.80;99.90;;;;;;4860869;29;20476;-86
2022/09/08 06:08:34;;;;;;;2.20;1.67;;;19.80;99.90;;;;;;4867780;29;20036;-86
2022/09/08 06:11:00;;;;;;;3.88;2.45;;;19.80;99.90;;;;;;4875048;29;20044;-86
2022/09/08 06:13:27;;;;;;;2.35;2.15;;;19.80;99.90;;;;;;4875287;29;20036;-85
2022/09/08 06:15:53;;;;;;;3.03;2.30;;;19.80;99.90;;;;;;4875567;29;20096;-86
2022/09/08 06:18:21;;;;;;;4.80;2.85;;;19.80;99.90;;;;;;4861502;29;20044;-86
2022/09/08 06:20:48;;;;;;;2.63;2.42;;;19.80;99.90;;;;;;4861644;29;20013;-86
2022/09/08 06:23:14;;;;;;;3.53;2.20;;;19.80;99.90;;;;;;4876162;29;20025;-86
2022/09/08 06:25:45;;;;;;;5.53;2.95;;;19.80;99.90;;;;;;4879934;29;20037;-86
2022/09/08 06:28:36;;;;;;;3.85;2.90;;;19.80;99.90;;;;;;4875185;29;20047;-86
2022/09/08 06:31:07;;;;;;;3.60;2.70;;;19.80;99.90;;;;;;4886855;29;20033;-86
2022/09/08 06:33:40;;;;;;;4.43;2.58;;;19.80;99.90;;;;;;4859538;29;20040;-86
2022/09/08 06:36:13;;;;;;;3.45;2.63;;;19.50;99.90;;;;;;4856672;29;20033;-86
2022/09/08 06:39:03;;;;;;;5.45;2.95;;;19.80;99.90;;;;;;4874174;29;20066;-86
2022/09/08 06:41:31;;;;;;;;;;;19.80;99.90;;;;;;4861580;29;20048;-86
2022/09/08 06:44:08;;;;;;;9.60;3.95;;;19.80;99.90;;;;;;4876791;29;19964;-86
2022/09/08 06:46:50;;;;;;;5.00;3.65;;;19.70;99.90;;;;;;4874082;29;20514;-85
2022/09/08 06:49:16;;;;;;;11.45;3.55;;;19.80;99.90;;;;;;4874920;29;20061;-85
2022/09/08 06:51:52;;;;;;;5.38;2.80;;;19.80;99.90;;;;;;4891019;29;20545;-85
2022/09/08 06:54:45;;;;;;;3.15;2.90;;;19.80;99.90;;;;;;4892221;29;20036;-85
2022/09/08 06:57:32;;;;;;;3.78;2.63;;;19.80;99.90;;;;;;4882576;29;20057;-84
2022/09/08 07:00:18;;;;;;;6.38;3.10;;;19.70;99.90;;;;;;4893033;29;20024;-85
2022/09/08 07:03:10;;;;;;;2.72;2.22;;;19.80;99.90;;;;;;4856739;29;20021;-84
2022/09/08 07:06:02;;;;;;;5.55;3.55;;;19.80;99.90;;;;;;4846667;29;20052;-85
2022/09/08 07:08:39;;;;;;;3.92;3.15;;;19.80;99.90;;;;;;4883489;29;20408;-85
2022/09/08 07:11:19;;;;;;;9.15;3.67;;;19.80;99.90;;;;;;4875014;29;20044;-85
2022/09/08 07:14:27;;;;;;;6.97;3.63;;;19.80;99.90;;;;;;4874747;29;20499;-85
2022/09/08 07:17:09;;;;;;;5.35;3.47;;;19.80;99.90;;;;;;4876256;29;20040;-85
2022/09/08 07:19:49;;;;;;;3.33;2.85;;;19.80;99.90;;;;;;4875238;29;20151;-85
2022/09/08 07:22:35;;;;;;;3.63;2.95;;;19.80;99.90;;;;;;4891509;29;20048;-85
2022/09/08 07:25:08;;;;;;;5.35;3.08;;;19.80;99.90;;;;;;4874875;29;20033;-85
2022/09/08 07:27:35;;;;;;;7.68;4.13;;;19.80;99.90;;;;;;4891875;29;20057;-86
2022/09/08 07:30:04;;;;;;;7.07;3.42;;;19.80;99.90;;;;;;4891344;29;20035;-86
2022/09/08 07:32:32;;;;;;;5.70;3.75;;;19.70;99.90;;;;;;4874456;29;20128;-86
2022/09/08 07:35:12;;;;;;;3.67;3.38;;;19.60;99.90;;;;;;4874889;29;20787;-86
2022/09/08 07:37:50;;;;;;;6.63;3.88;;;19.60;99.90;;;;;;4875466;29;20045;-85
2022/09/08 07:40:19;;;;;;;6.72;4.25;;;19.60;99.90;;;;;;4891119;29;20025;-85
2022/09/08 07:42:55;;;;;;;5.00;4.07;;;19.50;99.90;;;;;;4874048;29;20049;-85
2022/09/08 07:45:31;;;;;;;6.60;3.10;;;19.60;99.90;;;;;;4891353;29;20159;-85
2022/09/08 07:48:14;;;;;;;4.35;3.25;;;19.60;99.90;;;;;;4890765;29;20096;-86
2022/09/08 07:50:56;;;;;;;5.88;4.70;;;19.60;99.90;;;;;;4874383;29;20096;-86
2022/09/08 07:53:43;;;;;;;3.55;3.25;;;19.60;99.90;;;;;;4891161;29;20097;-86
2022/09/08 07:56:21;;;;;;;5.65;3.22;;;19.50;99.90;;;;;;4874644;29;20064;-86
2022/09/08 07:59:09;;;;;;;6.75;3.25;;;19.50;99.90;;;;;;4882425;29;20031;-86
2022/09/08 08:01:47;;;;;;;11.80;2.88;;;19.60;99.90;;;;;;4879193;29;20037;-86
2022/09/08 08:04:33;;;;;;;2.80;2.60;;;19.60;99.90;;;;;;4856287;29;20039;-86
2022/09/08 08:07:07;;;;;;;6.55;2.67;;;19.60;99.90;;;;;;4884858;29;20029;-86
2022/09/08 08:09:42;;;;;;;5.57;2.20;;;19.60;99.90;;;;;;4859472;29;20068;-86
2022/09/08 08:12:31;;;;;;;2.35;2.03;;;19.50;99.90;;;;;;4874570;29;20032;-86
2022/09/08 08:15:13;;;;;;;2.57;2.30;;;19.50;99.90;;;;;;4874840;29;20049;-86
2022/09/08 08:17:51;;;;;;;2.42;1.67;;;19.50;99.90;;;;;;4874636;29;20029;-87
2022/09/08 08:20:41;;;;;;;4.70;1.55;;;19.60;99.90;;;;;;4892460;29;20112;-88
2022/09/08 08:23:12;;;;;;;7.35;2.05;;;19.70;99.90;;;;;;4893111;29;20029;-88
2022/09/08 08:25:44;;;;;;;2.17;1.63;;;19.80;99.90;;;;;;4912258;29;20032;-88
2022/09/08 08:28:17;;;;;;;4.00;2.97;;;19.80;99.90;;;;;;4896265;29;20040;-88
2022/09/08 08:31:13;;;;;;;2.35;1.63;;;19.90;99.90;;;;;;4913563;29;20108;-88
2022/09/08 08:33:44;;;;;;;4.75;2.33;;;19.90;99.90;;;;;;4896519;29;20036;-88
2022/09/08 08:36:15;;;;;;;3.15;1.75;;;19.90;99.90;;;;;;4884970;29;20105;-86
2022/09/08 08:38:49;;;;;;;1.50;1.17;;;19.90;99.90;;;;;;4877762;29;20036;-86
2022/09/08 08:41:33;;;;;;;10.93;1.63;;;20.00;99.90;;;;;;4894196;29;20045;-87
2022/09/08 08:44:27;;;;;;;5.30;1.70;;;20.00;99.90;;;;;;4875909;29;20052;-86
2022/09/08 08:47:21;;;;;;;1.65;0.98;;;19.90;99.90;;;;;;4859677;29;20104;-86
2022/09/08 08:50:20;;;;;;;8.10;2.17;;;19.90;99.90;;;;;;4876006;29;20040;-86
2022/09/08 08:52:48;;;;;;;2.83;1.52;;;19.90;99.90;;;;;;4824181;29;20049;-87
2022/09/08 08:55:33;;;;;;;3.00;1.85;;;19.80;99.90;;;;;;4877517;29;20029;-87
2022/09/08 08:58:26;;;;;;;4.55;2.00;;;19.80;99.90;;;;;;4862633;29;20025;-88
2022/09/08 09:01:16;;;;;;;3.78;1.75;;;19.80;99.90;;;;;;4894204;29;20033;-87
2022/09/08 09:04:12;;;;;;;7.30;1.50;;;19.80;99.90;;;;;;4877332;29;20078;-87
2022/09/08 09:06:59;;;;;;;6.90;1.70;;;19.80;99.90;;;;;;4878186;29;20037;-87
2022/09/08 09:09:38;;;;;;;2.22;1.88;;;19.90;99.90;;;;;;4877577;29;20047;-87
2022/09/08 09:12:33;;;;;;;2.60;1.67;;;19.90;99.90;;;;;;4858861;29;20053;-87
2022/09/08 09:15:20;;;;;;;9.15;2.83;;;19.80;99.90;;;;;;4839796;29;20048;-86
2022/09/08 09:18:19;;;;;;;5.40;2.45;;;19.80;99.90;;;;;;4868642;29;20491;-86
2022/09/08 09:21:41;;;;;;;10.85;2.95;;;19.90;99.90;;;;;;4877541;29;20029;-87
2022/09/08 09:24:33;;;;;;;3.20;1.02;;;19.80;99.90;;;;;;4818975;29;20046;-86
2022/09/08 09:27:06;;;;;;;3.05;1.17;;;20.00;99.90;;;;;;4802735;29;20042;-87
2022/09/08 09:29:37;;;;;;;2.63;1.63;;;20.00;99.90;;;;;;4855892;29;20418;-86
2022/09/08 09:32:21;;;;;;;5.45;1.25;;;20.20;99.90;;;;;;4876485;29;20057;-89
2022/09/08 09:35:06;;;;;;;3.00;1.55;;;20.30;99.90;;;;;;4876608;29;20033;-89
2022/09/08 09:37:41;;;;;;;4.28;1.05;;;20.30;99.90;;;;;;4893256;29;20477;-88
2022/09/08 09:40:18;;;;;;;11.18;1.38;;;20.40;99.90;;;;;;4876532;29;20029;-87
2022/09/08 09:43:07;;;;;;;3.80;1.00;;;20.50;99.90;;;;;;4876345;29;20076;-87
2022/09/08 09:45:56;;;;;;;2.72;1.83;;;20.50;99.90;;;;;;4876266;29;20037;-88
2022/09/08 09:48:56;;;;;;;3.72;1.38;;;20.60;99.90;;;;;;4876456;29;20064;-87
2022/09/08 09:51:40;;;;;;;;;;;20.70;99.90;;;;;;4877014;29;20040;-88
2022/09/08 09:54:22;;;;;;;3.00;1.35;;;20.70;99.90;;;;;;4892932;29;19916;-89
2022/09/08 09:57:16;;;;;;;8.05;5.03;;;20.60;99.90;;;;;;4876226;29;20044;-89
2022/09/08 10:00:10;;;;;;;6.25;2.83;;;20.50;99.90;;;;;;4877837;29;20096;-88
2022/09/08 10:02:57;;;;;;;5.85;2.75;;;20.40;99.90;;;;;;4886337;29;20802;-88
2022/09/08 10:05:58;;;;;;;5.78;2.50;;;20.40;99.90;;;;;;4877783;29;20116;-88
2022/09/08 10:09:02;;;;;;;3.75;1.20;;;20.50;99.90;;;;;;4861851;29;20053;-89
2022/09/08 10:11:59;;;;;;;5.63;2.65;;;20.70;99.90;;;;;;4867608;29;20486;-88
2022/09/08 10:15:09;;;;;;;3.67;1.63;;;20.80;99.90;;;;;;4862055;29;20041;-89
2022/09/08 10:17:53;;;;;;;7.95;1.55;;;20.80;99.90;;;;;;4879899;29;20059;-89
2022/09/08 10:20:31;;;;;;;3.10;1.10;;;20.80;99.90;;;;;;4880349;29;20033;-89
2022/09/08 10:23:09;;;;;;;4.65;1.27;;;20.80;99.90;;;;;;4889333;29;20036;-89
2022/09/08 10:26:03;;;;;;;3.50;1.25;;;20.90;99.90;;;;;;4899541;29;20041;-89
2022/09/08 10:28:48;;;;;;;0.98;0.88;;;21.10;99.90;;;;;;4899210;29;20036;-89
2022/09/08 10:31:42;;;;;;;2.22;0.93;;;21.30;99.90;;;;;;4883159;29;20360;-89
2022/09/08 10:34:36;;;;;;;0.70;0.70;;;21.40;99.90;;;;;;4918446;29;20088;-90
2022/09/08 10:37:12;;;;;;;1.70;1.05;;;21.40;99.90;;;;;;4891645;29;20190;-89
2022/09/08 10:40:22;;;;;;;1.85;1.10;;;21.50;99.90;;;;;;4912286;29;20028;-89
2022/09/08 10:43:26;;;;;;;4.38;1.95;;;21.70;99.90;;;;;;4881230;29;20049;-89
2022/09/08 10:46:29;;;;;;;5.15;1.92;;;21.80;99.90;;;;;;4864789;29;20042;-89
2022/09/08 10:48:58;;;;;;;1.30;0.73;;;21.80;99.60;;;;;;4862112;29;20064;-89
2022/09/08 10:51:36;;;;;;;3.33;1.48;;;21.50;99.80;;;;;;4863119;29;20033;-88
2022/09/08 10:54:48;;;;;;;0.75;0.63;;;21.40;99.90;;;;;;4897847;29;20033;-88
2022/09/08 10:57:23;;;;;;;0.38;0.38;;;21.30;99.90;;;;;;4897472;29;20033;-88
2022/09/08 11:00:12;;;;;;;2.30;0.85;;;21.20;99.90;;;;;;4868184;29;20033;-89
2022/09/08 11:02:50;;;;;;;2.15;0.85;;;21.30;99.90;;;;;;4881982;29;20029;-88
2022/09/08 11:05:34;;;;;;;6.78;1.38;;;21.40;99.80;;;;;;4880970;29;20045;-89
2022/09/08 11:08:33;;;;;;;2.85;1.05;;;21.50;99.50;;;;;;4864874;29;20033;-88
2022/09/08 11:11:07;;;;;;;2.92;0.88;;;21.80;99.20;;;;;;4865654;29;20033;-88
2022/09/08 11:13:55;;;;;;;4.43;0.60;;;21.80;99.00;;;;;;4878670;29;20037;-89
2022/09/08 11:16:48;;;;;;;1.92;0.52;;;22.10;98.90;;;;;;4859441;29;20036;-89
2022/09/08 11:19:34;;;;;;;3.00;1.10;;;22.20;98.70;;;;;;4877886;29;20037;-89
2022/09/08 11:22:15;;;;;;;2.70;0.90;;;22.10;98.60;;;;;;4895053;29;20036;-88
2022/09/08 11:25:10;;;;;;;3.03;0.98;;;22.20;97.90;;;;;;4878096;29;20033;-89
2022/09/08 11:27:42;;;;;;;2.92;0.60;;;22.30;99.10;;;;;;4878857;29;20053;-87
2022/09/08 11:30:27;;;;;;;2.58;0.60;;;22.20;97.60;;;;;;4880700;29;20101;-88
2022/09/08 11:33:18;;;;;;;2.00;0.82;;;22.30;97.40;;;;;;4894311;29;20037;-88
2022/09/08 11:35:53;;;;;;;5.40;1.00;;;22.40;97.00;;;;;;4880995;29;20070;-88
2022/09/08 11:38:22;;;;;;;3.13;0.57;;;22.60;96.90;;;;;;4879335;29;20144;-88
2022/09/08 11:40:56;;;;;;;1.88;0.73;;;22.70;96.50;;;;;;4878927;29;20040;-89
2022/09/08 11:43:36;;;;;;;3.22;1.15;;;22.60;96.60;;;;;;4862534;29;20114;-88
2022/09/08 11:46:12;;;;;;;3.70;1.42;;;22.70;96.60;;;;;;4894303;29;20033;-88
2022/09/08 11:49:09;;;;;;;1.27;0.68;;;22.80;96.50;;;;;;4880932;29;20040;-88
2022/09/08 11:52:07;;;;;;;5.35;1.10;;;22.80;96.30;;;;;;4878436;29;20060;-88
2022/09/08 11:55:04;;;;;;;0.60;0.60;;;22.80;96.10;;;;;;4876069;29;20052;-88
2022/09/08 11:57:51;;;;;;;4.35;0.68;;;22.90;95.80;;;;;;4878006;29;20058;-88
2022/09/08 12:00:24;;;;;;;1.48;0.63;;;22.80;95.70;;;;;;4879896;29;20049;-88
2022/09/08 12:03:09;;;;;;;0.50;0.50;;;22.60;96.00;;;;;;4886919;29;20024;-88
2022/09/08 12:05:52;;;;;;;1.52;0.75;;;22.40;96.20;;;;;;4899824;29;20041;-88
2022/09/08 12:08:56;;;;;;;4.13;1.40;;;22.40;96.20;;;;;;4898847;29;20108;-89
2022/09/08 12:11:59;;;;;;;3.10;0.85;;;22.30;96.40;;;;;;4879971;29;20061;-88
2022/09/08 12:14:33;;;;;;;1.25;0.73;;;22.20;96.50;;;;;;4879797;29;20029;-88
2022/09/08 12:17:35;;;;;;;4.28;1.15;;;22.50;96.20;;;;;;4896689;29;20029;-88
2022/09/08 12:20:03;;;;;;;2.28;0.63;;;22.50;96.20;;;;;;4818959;29;20122;-88
2022/09/08 12:22:50;;;;;;;1.73;0.77;;;22.30;96.00;;;;;;4851782;29;20033;-89
2022/09/08 12:25:27;;;;;;;3.70;1.23;;;22.20;96.00;;;;;;4864888;29;20029;-88
2022/09/08 12:28:23;;;;;;;0.90;0.90;;;22.10;95.70;;;;;;4880319;29;20074;-89
2022/09/08 12:31:20;;;;;;;6.50;0.75;;;21.90;95.80;;;;;;4879449;29;20028;-89
2022/09/08 12:34:01;;;;;;;6.35;1.10;;;21.80;95.90;;;;;;4881941;29;20048;-90
2022/09/08 12:36:35;;;;;;;55.35;6.30;;;21.80;96.10;;;;;;4880397;29;20037;-88
2022/09/08 12:39:22;;;;;;;18.10;2.60;;;21.70;96.10;;;;;;4881054;29;20025;-88
2022/09/08 12:41:56;;;;;;;15.20;1.83;;;21.60;96.30;;;;;;4898138;29;20053;-87
2022/09/08 12:44:39;;;;;;;6.28;2.10;;;21.50;96.60;;;;;;4879608;29;20039;-88
2022/09/08 12:47:09;;;;;;;16.95;1.50;;;21.50;96.90;;;;;;4881413;29;20044;-89
2022/09/08 12:49:41;;;;;;;1.63;1.52;;;21.50;97.10;;;;;;4883931;29;20033;-88
2022/09/08 12:52:20;;;;;;;2.90;1.35;;;21.50;97.80;;;;;;4902507;29;20017;-88
2022/09/08 12:55:05;;;;;;;5.78;1.52;;;21.40;98.00;;;;;;4868909;29;20027;-87
2022/09/08 12:57:54;;;;;;;4.60;1.95;;;21.40;98.10;;;;;;4881768;29;20063;-88
2022/09/08 13:00:25;;;;;;;1.95;0.70;;;21.40;98.00;;;;;;4897639;29;20044;-89
2022/09/08 13:03:02;;;;;;;2.63;1.50;;;21.60;97.40;;;;;;4879966;29;20032;-88
2022/09/08 13:05:33;;;;;;;1.85;1.23;;;21.90;97.30;;;;;;4881408;29;20108;-88
2022/09/08 13:08:21;;;;;;;2.70;0.65;;;22.10;96.90;;;;;;4897803;29;20017;-90
2022/09/08 13:10:52;;;;;;;4.78;1.70;;;22.20;96.70;;;;;;4860662;29;20036;-89
2022/09/08 13:13:41;;;;;;;24.90;4.25;;;22.20;96.40;;;;;;4870501;29;20029;-89
2022/09/08 13:16:06;;;;;;;20.50;3.45;;;22.30;96.00;;;;;;4887391;29;20009;-90
2022/09/08 13:18:47;;;;;;;2.40;1.45;;;22.30;96.00;;;;;;4900996;29;20104;-89
2022/09/08 13:21:20;;;;;;;9.40;1.83;;;22.20;96.00;;;;;;4892180;29;20028;-88
2022/09/08 13:24:04;;;;;;;2.00;1.52;;;22.20;96.10;;;;;;4880810;29;20092;-88
2022/09/08 13:26:33;;;;;;;5.57;2.08;;;22.10;96.10;;;;;;4879937;29;20040;-88
2022/09/08 13:29:27;;;;;;;5.45;1.13;;;22.00;96.00;;;;;;4880441;29;20037;-88
2022/09/08 13:32:11;;;;;;;2.13;1.48;;;21.90;96.10;;;;;;4879528;29;20391;-89
2022/09/08 13:34:40;;;;;;;2.78;1.13;;;21.90;95.90;;;;;;4878337;29;20041;-88
2022/09/08 13:37:12;;;;;;;7.60;1.70;;;22.00;95.50;;;;;;4877407;29;20025;-89
2022/09/08 13:40:07;;;;;;;1.30;1.13;;;22.00;95.30;;;;;;4877946;29;20081;-88